NKTM3 KBUR-KLAS
Flight info
| Callsign | NKTM3 |
|---|---|
| Flight time | 0h 45m |
| Altitude | 31000 |
| Route | KBUR/15 VNY3 DAG CRESO5 KLAS/26L |
| Aircraft | GLEX/L-V/N |
Departure
| Time | 2026-05-06 05:12 |
|---|---|
| Airport | Hollywood Burbank/Bob Hope Airport (KBUR) |
Arrival
| Time | 2026-05-06 05:57 |
|---|---|
| Airport | Harry Reid International Airport (KLAS) |
| Time | Latitude | Longitude | Altitude | Speed | Heading |
|---|---|---|---|---|---|
| 2026-05-06 04:47 | 34.20091 | -118.35969 | 726 ft | 0 kts | 257° |
| 2026-05-06 04:56 | 34.20093 | -118.35956 | 726 ft | 2 kts | 271° |
| 2026-05-06 04:56 | 34.20085 | -118.35940 | 726 ft | 2 kts | 333° |
| 2026-05-06 04:56 | 34.20079 | -118.35936 | 726 ft | 0 kts | 336° |
| 2026-05-06 04:59 | 34.20102 | -118.35947 | 708 ft | 15 kts | 340° |
| 2026-05-06 05:00 | 34.20152 | -118.35952 | 728 ft | 16 kts | 24° |
| 2026-05-06 05:00 | 34.20230 | -118.35886 | 730 ft | 15 kts | 346° |
| 2026-05-06 05:00 | 34.20336 | -118.35916 | 736 ft | 19 kts | 346° |
| 2026-05-06 05:00 | 34.20496 | -118.35959 | 742 ft | 26 kts | 347° |
| 2026-05-06 05:01 | 34.20687 | -118.36013 | 755 ft | 31 kts | 346° |
| 2026-05-06 05:01 | 34.20880 | -118.36065 | 768 ft | 26 kts | 347° |
| 2026-05-06 05:01 | 34.21037 | -118.36108 | 780 ft | 20 kts | 347° |
| 2026-05-06 05:01 | 34.21130 | -118.36130 | 783 ft | 0 kts | 8° |
| 2026-05-06 05:10 | 34.21183 | -118.36090 | 784 ft | 16 kts | 55° |
| 2026-05-06 05:11 | 34.21118 | -118.36015 | 782 ft | 17 kts | 167° |
| 2026-05-06 05:11 | 34.20773 | -118.35918 | 759 ft | 96 kts | 167° |
| 2026-05-06 05:11 | 34.19828 | -118.35662 | 765 ft | 176 kts | 167° |
| 2026-05-06 05:11 | 34.18518 | -118.35301 | 1170 ft | 209 kts | 167° |
| 2026-05-06 05:12 | 34.16968 | -118.34858 | 1789 ft | 246 kts | 166° |
| 2026-05-06 05:12 | 34.15274 | -118.34370 | 2433 ft | 245 kts | 167° |
| 2026-05-06 05:12 | 34.13594 | -118.33948 | 3076 ft | 257 kts | 168° |
| 2026-05-06 05:12 | 34.11909 | -118.33348 | 3612 ft | 252 kts | 157° |
| 2026-05-06 05:13 | 34.10560 | -118.31974 | 4171 ft | 257 kts | 123° |
| 2026-05-06 05:13 | 34.10060 | -118.29944 | 4780 ft | 263 kts | 91° |
| 2026-05-06 05:13 | 34.10503 | -118.27784 | 5436 ft | 273 kts | 62° |
| 2026-05-06 05:13 | 34.11728 | -118.26053 | 6117 ft | 271 kts | 41° |
| 2026-05-06 05:14 | 34.13254 | -118.24629 | 6768 ft | 281 kts | 31° |
| 2026-05-06 05:14 | 34.15061 | -118.23861 | 7356 ft | 278 kts | 5° |
| 2026-05-06 05:14 | 34.16981 | -118.24132 | 7973 ft | 281 kts | 343° |
| 2026-05-06 05:14 | 34.18847 | -118.24853 | 8643 ft | 281 kts | 340° |
| 2026-05-06 05:15 | 34.20752 | -118.25530 | 9295 ft | 287 kts | 345° |
| 2026-05-06 05:15 | 34.22688 | -118.26033 | 9951 ft | 288 kts | 347° |
| 2026-05-06 05:15 | 34.24666 | -118.26549 | 10551 ft | 293 kts | 345° |
| 2026-05-06 05:15 | 34.26653 | -118.27166 | 11162 ft | 293 kts | 343° |
| 2026-05-06 05:16 | 34.28624 | -118.27819 | 11770 ft | 296 kts | 343° |
| 2026-05-06 05:16 | 34.30614 | -118.28438 | 12398 ft | 299 kts | 344° |
| 2026-05-06 05:16 | 34.32652 | -118.29023 | 13037 ft | 300 kts | 345° |
| 2026-05-06 05:16 | 34.34722 | -118.29622 | 13686 ft | 324 kts | 344° |
| 2026-05-06 05:17 | 34.37032 | -118.30332 | 14330 ft | 360 kts | 343° |
| 2026-05-06 05:17 | 34.39514 | -118.31112 | 14969 ft | 366 kts | 343° |
| 2026-05-06 05:17 | 34.42024 | -118.31703 | 15567 ft | 373 kts | 353° |
| 2026-05-06 05:17 | 34.44654 | -118.31633 | 16183 ft | 380 kts | 5° |
| 2026-05-06 05:18 | 34.47237 | -118.30943 | 16908 ft | 382 kts | 17° |
| 2026-05-06 05:18 | 34.49673 | -118.29622 | 17685 ft | 394 kts | 29° |
| 2026-05-06 05:18 | 34.51906 | -118.27662 | 18473 ft | 395 kts | 39° |
| 2026-05-06 05:18 | 34.54003 | -118.25486 | 19187 ft | 404 kts | 40° |
| 2026-05-06 05:19 | 34.56191 | -118.23293 | 19920 ft | 406 kts | 38° |
| 2026-05-06 05:19 | 34.58430 | -118.21167 | 20666 ft | 410 kts | 38° |
| 2026-05-06 05:19 | 34.60649 | -118.19002 | 21423 ft | 418 kts | 39° |
| 2026-05-06 05:19 | 34.62876 | -118.16687 | 22211 ft | 421 kts | 42° |
| 2026-05-06 05:20 | 34.64834 | -118.14027 | 22981 ft | 425 kts | 54° |
| 2026-05-06 05:20 | 34.66356 | -118.10927 | 23781 ft | 429 kts | 65° |
| 2026-05-06 05:20 | 34.67428 | -118.07469 | 23982 ft | 444 kts | 77° |
| 2026-05-06 05:20 | 34.67979 | -118.03907 | 24621 ft | 427 kts | 82° |
| 2026-05-06 05:21 | 34.68547 | -118.00301 | 25337 ft | 442 kts | 79° |
| 2026-05-06 05:21 | 34.69194 | -117.96618 | 26078 ft | 444 kts | 82° |
| 2026-05-06 05:21 | 34.69575 | -117.92935 | 26810 ft | 447 kts | 86° |
| 2026-05-06 05:21 | 34.69758 | -117.89110 | 27578 ft | 457 kts | 90° |
| 2026-05-06 05:22 | 34.69837 | -117.85235 | 28370 ft | 458 kts | 90° |
| 2026-05-06 05:22 | 34.69996 | -117.81325 | 28946 ft | 473 kts | 88° |
| 2026-05-06 05:22 | 34.70301 | -117.77330 | 28928 ft | 479 kts | 85° |
| 2026-05-06 05:23 | 34.70810 | -117.69328 | 28919 ft | 475 kts | 90° |
| 2026-05-06 05:23 | 34.71113 | -117.57358 | 28979 ft | 473 kts | 88° |
| 2026-05-06 05:24 | 34.71850 | -117.49424 | 28990 ft | 472 kts | 79° |
| 2026-05-06 05:24 | 34.73936 | -117.41876 | 29001 ft | 473 kts | 70° |
| 2026-05-06 05:25 | 34.75886 | -117.34227 | 28991 ft | 476 kts | 77° |
| 2026-05-06 05:25 | 34.76771 | -117.30248 | 28991 ft | 495 kts | 75° |
| 2026-05-06 05:25 | 34.77816 | -117.26265 | 28981 ft | 501 kts | 72° |
| 2026-05-06 05:26 | 34.80201 | -117.18239 | 28955 ft | 504 kts | 72° |
| 2026-05-06 05:26 | 34.82209 | -117.10078 | 28994 ft | 506 kts | 76° |
| 2026-05-06 05:27 | 34.84272 | -117.02018 | 28999 ft | 478 kts | 72° |
| 2026-05-06 05:27 | 34.85358 | -116.98335 | 28996 ft | 456 kts | 72° |
| 2026-05-06 05:27 | 34.86350 | -116.94718 | 29001 ft | 451 kts | 74° |
| 2026-05-06 05:28 | 34.88126 | -116.87285 | 28907 ft | 456 kts | 75° |
| 2026-05-06 05:28 | 34.89100 | -116.83589 | 28492 ft | 454 kts | 72° |
| 2026-05-06 05:28 | 34.90104 | -116.80046 | 28085 ft | 439 kts | 72° |
| 2026-05-06 05:29 | 34.91053 | -116.76564 | 27663 ft | 422 kts | 73° |
| 2026-05-06 05:29 | 34.92051 | -116.73220 | 27245 ft | 419 kts | 68° |
| 2026-05-06 05:29 | 34.93395 | -116.70097 | 26849 ft | 425 kts | 58° |
| 2026-05-06 05:29 | 34.95133 | -116.67179 | 26460 ft | 423 kts | 52° |
| 2026-05-06 05:30 | 34.96926 | -116.64342 | 26080 ft | 422 kts | 55° |
| 2026-05-06 05:30 | 34.98566 | -116.61345 | 25708 ft | 425 kts | 58° |
| 2026-05-06 05:30 | 35.00115 | -116.58266 | 25339 ft | 433 kts | 59° |
| 2026-05-06 05:30 | 35.01744 | -116.55239 | 25009 ft | 428 kts | 56° |
| 2026-05-06 05:31 | 35.03495 | -116.52307 | 24671 ft | 423 kts | 53° |
| 2026-05-06 05:31 | 35.05248 | -116.49421 | 24348 ft | 423 kts | 55° |
| 2026-05-06 05:31 | 35.06919 | -116.46459 | 24033 ft | 423 kts | 57° |
| 2026-05-06 05:31 | 35.08493 | -116.43472 | 23959 ft | 419 kts | 58° |
| 2026-05-06 05:32 | 35.10119 | -116.40520 | 23954 ft | 411 kts | 53° |
| 2026-05-06 05:32 | 35.12057 | -116.37989 | 23947 ft | 408 kts | 45° |
| 2026-05-06 05:32 | 35.14091 | -116.35591 | 23938 ft | 412 kts | 45° |
| 2026-05-06 05:32 | 35.16061 | -116.33011 | 23554 ft | 414 kts | 49° |
| 2026-05-06 05:33 | 35.17931 | -116.30356 | 23092 ft | 410 kts | 50° |
| 2026-05-06 05:33 | 35.19855 | -116.27775 | 22627 ft | 407 kts | 47° |
| 2026-05-06 05:33 | 35.21834 | -116.25344 | 22146 ft | 404 kts | 45° |
| 2026-05-06 05:33 | 35.23755 | -116.22891 | 21632 ft | 403 kts | 49° |
| 2026-05-06 05:34 | 35.25593 | -116.20309 | 21141 ft | 401 kts | 50° |
| 2026-05-06 05:34 | 35.27410 | -116.17729 | 20658 ft | 398 kts | 49° |
| 2026-05-06 05:34 | 35.29264 | -116.15204 | 20191 ft | 396 kts | 48° |
| 2026-05-06 05:34 | 35.31133 | -116.12737 | 19723 ft | 394 kts | 47° |
| 2026-05-06 05:35 | 35.32952 | -116.10295 | 19278 ft | 391 kts | 49° |
| 2026-05-06 05:35 | 35.34745 | -116.07793 | 18933 ft | 384 kts | 50° |
| 2026-05-06 05:35 | 35.36455 | -116.05371 | 18921 ft | 369 kts | 49° |
| 2026-05-06 05:35 | 35.38132 | -116.03047 | 18614 ft | 370 kts | 48° |
| 2026-05-06 05:36 | 35.39865 | -116.00710 | 18133 ft | 366 kts | 48° |
| 2026-05-06 05:36 | 35.41565 | -115.98414 | 17589 ft | 355 kts | 48° |
| 2026-05-06 05:36 | 35.43159 | -115.96209 | 17069 ft | 344 kts | 49° |
| 2026-05-06 05:36 | 35.44714 | -115.94023 | 16535 ft | 334 kts | 49° |
| 2026-05-06 05:37 | 35.46239 | -115.91899 | 16017 ft | 328 kts | 48° |
| 2026-05-06 05:37 | 35.47740 | -115.89846 | 15511 ft | 322 kts | 47° |
| 2026-05-06 05:37 | 35.49228 | -115.87818 | 15107 ft | 312 kts | 47° |
| 2026-05-06 05:37 | 35.50638 | -115.85871 | 14799 ft | 304 kts | 48° |
| 2026-05-06 05:38 | 35.52026 | -115.83932 | 14489 ft | 300 kts | 47° |
| 2026-05-06 05:38 | 35.53410 | -115.82004 | 14191 ft | 301 kts | 47° |
| 2026-05-06 05:38 | 35.54798 | -115.80093 | 13892 ft | 298 kts | 47° |
| 2026-05-06 05:38 | 35.56181 | -115.78191 | 13570 ft | 298 kts | 47° |
| 2026-05-06 05:39 | 35.57555 | -115.76290 | 13262 ft | 295 kts | 47° |
| 2026-05-06 05:39 | 35.58896 | -115.74420 | 12969 ft | 296 kts | 47° |
| 2026-05-06 05:39 | 35.60252 | -115.72544 | 12961 ft | 293 kts | 47° |
| 2026-05-06 05:39 | 35.61644 | -115.70681 | 12963 ft | 295 kts | 46° |
| 2026-05-06 05:40 | 35.63034 | -115.68843 | 12963 ft | 293 kts | 46° |
| 2026-05-06 05:40 | 35.64421 | -115.66982 | 12971 ft | 295 kts | 46° |
| 2026-05-06 05:40 | 35.65775 | -115.65132 | 12968 ft | 293 kts | 47° |
| 2026-05-06 05:40 | 35.67145 | -115.63261 | 12967 ft | 296 kts | 46° |
| 2026-05-06 05:41 | 35.68531 | -115.61390 | 12970 ft | 293 kts | 46° |
| 2026-05-06 05:41 | 35.69916 | -115.59532 | 12970 ft | 295 kts | 46° |
| 2026-05-06 05:41 | 35.71277 | -115.57695 | 12969 ft | 294 kts | 47° |
| 2026-05-06 05:41 | 35.72684 | -115.55873 | 12954 ft | 293 kts | 40° |
| 2026-05-06 05:42 | 35.74385 | -115.54493 | 12958 ft | 292 kts | 27° |
| 2026-05-06 05:42 | 35.76184 | -115.53331 | 12968 ft | 292 kts | 28° |
| 2026-05-06 05:42 | 35.77947 | -115.52058 | 12976 ft | 295 kts | 31° |
| 2026-05-06 05:42 | 35.79651 | -115.50757 | 12969 ft | 285 kts | 31° |
| 2026-05-06 05:43 | 35.81348 | -115.49547 | 12996 ft | 278 kts | 28° |
| 2026-05-06 05:43 | 35.83056 | -115.48406 | 13030 ft | 284 kts | 28° |
| 2026-05-06 05:43 | 35.84773 | -115.47242 | 13027 ft | 279 kts | 29° |
| 2026-05-06 05:43 | 35.86463 | -115.46040 | 13026 ft | 276 kts | 30° |
| 2026-05-06 05:44 | 35.88107 | -115.44854 | 13015 ft | 273 kts | 30° |
| 2026-05-06 05:44 | 35.89751 | -115.43694 | 13029 ft | 275 kts | 29° |
| 2026-05-06 05:44 | 35.91418 | -115.42540 | 13030 ft | 274 kts | 28° |
| 2026-05-06 05:44 | 35.92535 | -115.41768 | 12915 ft | 278 kts | 29° |
| 2026-05-06 05:45 | 35.94799 | -115.40192 | 12433 ft | 283 kts | 29° |
| 2026-05-06 05:45 | 35.95958 | -115.39379 | 12174 ft | 279 kts | 29° |
| 2026-05-06 05:45 | 35.97586 | -115.38228 | 11792 ft | 267 kts | 30° |
| 2026-05-06 05:45 | 35.98585 | -115.37360 | 11518 ft | 261 kts | 40° |
| 2026-05-06 05:46 | 35.98592 | -115.37353 | 11515 ft | 261 kts | 40° |
| 2026-05-06 05:46 | 35.99728 | -115.35821 | 11146 ft | 255 kts | 51° |
| 2026-05-06 05:46 | 36.00633 | -115.33979 | 11001 ft | 246 kts | 63° |
| 2026-05-06 05:46 | 36.01172 | -115.32002 | 10993 ft | 240 kts | 75° |
| 2026-05-06 05:47 | 36.01351 | -115.29929 | 10997 ft | 246 kts | 88° |
| 2026-05-06 05:47 | 36.01287 | -115.28616 | 11001 ft | 245 kts | 92° |
| 2026-05-06 05:47 | 36.01136 | -115.26515 | 10752 ft | 256 kts | 92° |
| 2026-05-06 05:47 | 36.01038 | -115.24298 | 10260 ft | 258 kts | 90° |
| 2026-05-06 05:48 | 36.00955 | -115.21545 | 9613 ft | 255 kts | 90° |
| 2026-05-06 05:48 | 36.00859 | -115.19359 | 9076 ft | 253 kts | 92° |
| 2026-05-06 05:48 | 36.00740 | -115.17314 | 9030 ft | 238 kts | 92° |
| 2026-05-06 05:48 | 36.00624 | -115.15267 | 9028 ft | 238 kts | 92° |
| 2026-05-06 05:49 | 36.00526 | -115.13217 | 9031 ft | 236 kts | 91° |
| 2026-05-06 05:49 | 36.00432 | -115.11176 | 9030 ft | 239 kts | 91° |
| 2026-05-06 05:49 | 36.00330 | -115.09157 | 9033 ft | 236 kts | 92° |
| 2026-05-06 05:49 | 36.00243 | -115.07543 | 8837 ft | 243 kts | 92° |
| 2026-05-06 05:50 | 36.00133 | -115.05438 | 8458 ft | 246 kts | 92° |
| 2026-05-06 05:50 | 36.00024 | -115.03330 | 8092 ft | 246 kts | 92° |
| 2026-05-06 05:50 | 35.99924 | -115.01297 | 8019 ft | 233 kts | 91° |
| 2026-05-06 05:50 | 35.99898 | -114.99298 | 8017 ft | 235 kts | 88° |
| 2026-05-06 05:51 | 35.99890 | -114.97316 | 8004 ft | 225 kts | 88° |
| 2026-05-06 05:51 | 35.99890 | -114.95402 | 8003 ft | 221 kts | 88° |
| 2026-05-06 05:51 | 36.00012 | -114.93518 | 7865 ft | 226 kts | 74° |
| 2026-05-06 05:51 | 36.00654 | -114.91747 | 7546 ft | 228 kts | 55° |
| 2026-05-06 05:52 | 36.01791 | -114.90335 | 7009 ft | 234 kts | 34° |
| 2026-05-06 05:52 | 36.03244 | -114.89474 | 6497 ft | 235 kts | 17° |
| 2026-05-06 05:52 | 36.04850 | -114.89224 | 5991 ft | 236 kts | 355° |
| 2026-05-06 05:52 | 36.06452 | -114.89632 | 5532 ft | 232 kts | 340° |
| 2026-05-06 05:53 | 36.07871 | -114.90484 | 5334 ft | 222 kts | 320° |
| 2026-05-06 05:53 | 36.08770 | -114.91928 | 5234 ft | 207 kts | 292° |
| 2026-05-06 05:53 | 36.09016 | -114.93567 | 5111 ft | 186 kts | 264° |
| 2026-05-06 05:53 | 36.08700 | -114.95149 | 4896 ft | 193 kts | 249° |
| 2026-05-06 05:54 | 36.08207 | -114.96706 | 4789 ft | 195 kts | 251° |
| 2026-05-06 05:54 | 36.07762 | -114.98295 | 4508 ft | 204 kts | 256° |
| 2026-05-06 05:54 | 36.07402 | -115.00055 | 4045 ft | 214 kts | 264° |
| 2026-05-06 05:54 | 36.07234 | -115.01816 | 3844 ft | 195 kts | 270° |
| 2026-05-06 05:55 | 36.07222 | -115.03433 | 3538 ft | 183 kts | 274° |
| 2026-05-06 05:55 | 36.07282 | -115.04942 | 3337 ft | 176 kts | 273° |
| 2026-05-06 05:55 | 36.07326 | -115.06459 | 3147 ft | 175 kts | 271° |
| 2026-05-06 05:55 | 36.07350 | -115.07931 | 2883 ft | 164 kts | 274° |
| 2026-05-06 05:56 | 36.07543 | -115.09218 | 2635 ft | 145 kts | 278° |
| 2026-05-06 05:56 | 36.07643 | -115.10399 | 2459 ft | 130 kts | 266° |
| 2026-05-06 05:56 | 36.07632 | -115.11420 | 2249 ft | 106 kts | 266° |
| 2026-05-06 05:56 | 36.07636 | -115.12282 | 2034 ft | 107 kts | 270° |
| 2026-05-06 05:57 | 36.07634 | -115.13131 | 2067 ft | 88 kts | 273° |
| 2026-05-06 05:57 | 36.07654 | -115.13755 | 2093 ft | 39 kts | 298° |
| 2026-05-06 05:57 | 36.07733 | -115.13804 | 2095 ft | 0 kts | 2° |
| 2026-05-06 05:57 | 36.07748 | -115.13802 | 2095 ft | 14 kts | 11° |
| 2026-05-06 05:58 | 36.07907 | -115.13792 | 2093 ft | 25 kts | 1° |
| 2026-05-06 05:58 | 36.08079 | -115.13808 | 2090 ft | 14 kts | 354° |
| 2026-05-06 05:58 | 36.08115 | -115.13826 | 2090 ft | 3 kts | 314° |
| 2026-05-06 05:58 | 36.08116 | -115.13828 | 2090 ft | 0 kts | 314° |